createdAt,value
2018-08-19T00:01:10.858Z,95615.61
2018-08-19T00:03:39.590Z,95619.30
2018-08-19T00:06:08.324Z,95614.24
2018-08-19T00:08:36.981Z,95620.31
2018-08-19T00:11:09.951Z,95617.14
2018-08-19T00:13:38.964Z,95620.86
2018-08-19T00:16:08.803Z,95616.54
2018-08-19T00:18:37.904Z,95627.90
2018-08-19T00:21:09.147Z,95615.14
2018-08-19T00:23:43.022Z,95618.05
2018-08-19T00:26:11.890Z,95625.01
2018-08-19T00:28:40.571Z,95615.88
2018-08-19T00:31:09.230Z,95625.81
2018-08-19T00:33:37.932Z,95625.38
2018-08-19T00:36:24.032Z,95627.55
2018-08-19T00:38:53.040Z,95628.16
2018-08-19T00:41:21.779Z,95623.33
2018-08-19T00:43:50.490Z,95616.98
2018-08-19T00:46:21.934Z,95612.27
2018-08-19T00:48:50.582Z,95607.33
2018-08-19T00:51:19.282Z,95613.52
2018-08-19T00:53:47.946Z,95621.73
2018-08-19T00:56:16.608Z,95622.92
2018-08-19T00:58:45.258Z,95621.55
2018-08-19T01:01:26.592Z,95614.84
2018-08-19T01:03:56.283Z,95614.84
2018-08-19T01:06:25.011Z,95615.50
2018-08-19T01:08:53.781Z,95623.89
2018-08-19T01:11:31.260Z,95616.88
2018-08-19T01:13:59.983Z,95620.18
2018-08-19T01:16:28.713Z,95609.98
2018-08-19T01:19:01.548Z,95613.30
2018-08-19T01:21:31.594Z,95611.00
2018-08-19T01:24:01.234Z,95610.43
2018-08-19T01:26:34.240Z,95609.71
2018-08-19T01:29:03.037Z,95607.15
2018-08-19T01:31:31.710Z,95612.72
2018-08-19T01:34:00.447Z,95607.73
2018-08-19T01:36:30.510Z,95610.98
2018-08-19T01:38:59.180Z,95605.05
2018-08-19T01:41:27.991Z,95610.33
2018-08-19T01:44:06.934Z,95607.73
2018-08-19T01:46:37.901Z,95615.28
2018-08-19T01:49:08.394Z,95616.34
2018-08-19T01:51:38.170Z,95620.14
2018-08-19T01:54:10.980Z,95615.72
2018-08-19T01:56:40.259Z,95622.16
2018-08-19T01:59:08.927Z,95616.16
2018-08-19T02:01:52.855Z,95620.04
2018-08-19T02:04:22.467Z,95618.33
2018-08-19T02:06:51.172Z,95627.45
2018-08-19T02:09:20.531Z,95619.60
2018-08-19T02:11:53.939Z,95621.55
2018-08-19T02:14:23.182Z,95622.78
2018-08-19T02:16:52.739Z,95626.94
2018-08-19T02:19:21.455Z,95625.92
2018-08-19T02:21:50.902Z,95620.92
2018-08-19T02:24:19.866Z,95623.02
2018-08-19T02:26:48.532Z,95619.87
2018-08-19T02:29:33.302Z,95623.44
2018-08-19T02:32:04.022Z,95618.95
2018-08-19T02:34:34.783Z,95620.23
2018-08-19T02:37:07.902Z,95619.02
2018-08-19T02:39:38.772Z,95614.16
2018-08-19T02:42:25.735Z,95623.63
2018-08-19T02:45:00.398Z,95629.59
2018-08-19T02:47:29.200Z,95621.32
2018-08-19T02:49:57.802Z,95623.84
2018-08-19T02:52:28.297Z,95626.44
2018-08-19T02:54:58.439Z,95626.67
2018-08-19T02:57:27.852Z,95624.48
2018-08-19T02:59:56.882Z,95627.10
2018-08-19T03:02:27.518Z,95631.77
2018-08-19T03:04:56.956Z,95630.69
2018-08-19T03:07:26.830Z,95626.53
2018-08-19T03:09:59.905Z,95622.77
2018-08-19T03:12:28.683Z,95629.38
2018-08-19T03:14:57.400Z,95627.50
2018-08-19T03:17:27.155Z,95637.64
2018-08-19T03:19:57.634Z,95632.34
2018-08-19T03:22:27.008Z,95642.64
2018-08-19T03:24:56.128Z,95644.88
2018-08-19T03:27:24.841Z,95639.22
2018-08-19T03:30:07.627Z,95640.34
2018-08-19T03:32:36.358Z,95646.63
2018-08-19T03:35:13.075Z,95643.56
2018-08-19T03:37:41.931Z,95647.17
2018-08-19T03:40:10.677Z,95653.41
2018-08-19T03:42:39.319Z,95495.02
2018-08-19T03:45:13.136Z,95654.80
2018-08-19T03:47:41.789Z,95659.09
2018-08-19T03:50:15.583Z,95650.90
2018-08-19T03:52:44.980Z,95660.19
2018-08-19T03:55:18.795Z,95657.72
2018-08-19T03:57:48.082Z,95660.59
2018-08-19T04:00:18.260Z,95662.56
2018-08-19T04:02:46.949Z,95667.80
2018-08-19T04:05:15.687Z,95670.41
2018-08-19T04:07:44.547Z,95672.89
2018-08-19T04:10:13.509Z,95671.45
2018-08-19T04:12:42.211Z,95676.16
2018-08-19T04:15:11.314Z,95674.58
2018-08-19T04:17:39.975Z,95672.26
2018-08-19T04:20:08.631Z,95674.13
2018-08-19T04:22:37.260Z,95674.34
2018-08-19T04:25:06.006Z,95677.98
2018-08-19T04:27:34.704Z,95677.86
2018-08-19T04:30:05.499Z,95679.53
2018-08-19T04:32:34.240Z,95689.31
2018-08-19T04:35:02.952Z,95678.20
2018-08-19T04:37:31.608Z,95672.33
2018-08-19T04:40:00.512Z,95672.05
2018-08-19T04:42:29.179Z,95677.52
2018-08-19T04:44:57.847Z,95677.14
2018-08-19T04:47:32.276Z,95683.44
2018-08-19T04:50:00.915Z,95677.00
2018-08-19T04:52:29.703Z,95682.91
2018-08-19T04:54:58.556Z,95682.86
2018-08-19T04:57:27.180Z,95685.76
2018-08-19T04:59:55.839Z,95690.71
2018-08-19T05:02:24.588Z,95694.34
2018-08-19T05:04:53.231Z,95693.34
2018-08-19T05:07:21.871Z,95690.05
2018-08-19T05:09:50.538Z,95685.48
2018-08-19T05:12:19.305Z,95684.77
2018-08-19T05:14:47.975Z,95683.17
2018-08-19T05:17:16.602Z,95692.14
2018-08-19T05:19:45.239Z,95691.61
2018-08-19T05:22:14.981Z,95692.42
2018-08-19T05:24:45.300Z,95692.03
2018-08-19T05:27:14.690Z,95699.38
2018-08-19T05:29:43.318Z,95698.54
2018-08-19T05:32:14.186Z,95693.15
2018-08-19T05:34:43.041Z,95687.64
2018-08-19T05:37:11.774Z,95690.14
2018-08-19T05:39:45.187Z,95683.47
2018-08-19T05:42:14.413Z,95692.03
2018-08-19T05:44:43.750Z,95695.07
2018-08-19T05:47:15.269Z,95692.72
2018-08-19T05:49:45.162Z,95694.13
2018-08-19T05:52:28.997Z,95697.84
2018-08-19T05:54:58.854Z,95691.72
2018-08-19T05:57:28.706Z,95699.42
2018-08-19T05:59:57.466Z,95698.98
2018-08-19T06:02:32.392Z,95695.75
2018-08-19T06:05:02.106Z,95701.63
2018-08-19T06:07:30.972Z,95697.11
2018-08-19T06:09:59.732Z,95699.28
2018-08-19T06:12:28.447Z,95692.98
2018-08-19T06:14:58.955Z,95700.39
2018-08-19T06:17:27.674Z,95698.03
2018-08-19T06:19:56.392Z,95701.03
2018-08-19T06:22:42.298Z,95709.64
2018-08-19T06:25:11.806Z,95702.56
2018-08-19T06:27:49.548Z,95707.26
2018-08-19T06:30:19.464Z,95706.75
2018-08-19T06:32:48.260Z,95707.39
2018-08-19T06:35:16.999Z,95710.81
2018-08-19T06:37:45.727Z,95706.25
2018-08-19T06:40:20.251Z,95704.95
2018-08-19T06:42:48.992Z,95700.80
2018-08-19T06:45:17.770Z,95697.31
2018-08-19T06:47:46.505Z,95701.52
2018-08-19T06:50:26.409Z,95695.54
2018-08-19T06:52:55.683Z,95699.23
2018-08-19T06:55:24.468Z,95700.09
2018-08-19T06:57:53.696Z,95691.80
2018-08-19T07:00:26.473Z,95699.87
2018-08-19T07:02:56.044Z,95695.88
2018-08-19T07:05:24.747Z,95700.45
2018-08-19T07:07:53.562Z,95703.45
2018-08-19T07:10:34.528Z,95702.70
2018-08-19T07:13:13.651Z,95703.72
2018-08-19T07:15:43.396Z,95706.16
2018-08-19T07:18:13.862Z,95707.96
2018-08-19T07:20:43.728Z,95706.84
2018-08-19T07:23:12.946Z,95698.02
2018-08-19T07:25:43.848Z,95692.95
2018-08-19T07:28:13.643Z,95695.56
2018-08-19T07:30:42.863Z,95697.27
2018-08-19T07:33:12.036Z,95693.92
2018-08-19T07:35:40.943Z,95696.50
2018-08-19T07:38:09.687Z,95700.91
2018-08-19T07:40:38.494Z,95704.52
2018-08-19T07:43:07.427Z,95703.84
2018-08-19T07:45:36.154Z,95697.70
2018-08-19T07:48:05.172Z,95701.83
2018-08-19T07:50:33.910Z,95699.50
2018-08-19T07:53:02.824Z,95702.13
2018-08-19T07:55:31.508Z,95698.17
2018-08-19T07:58:00.708Z,95700.84
2018-08-19T08:00:34.681Z,95699.95
2018-08-19T08:03:03.447Z,95694.34
2018-08-19T08:05:48.743Z,95699.43
2018-08-19T08:08:17.482Z,95690.98
2018-08-19T08:10:46.589Z,95687.29
2018-08-19T08:13:15.627Z,95684.49
2018-08-19T08:15:49.309Z,95689.53
2018-08-19T08:18:18.817Z,95691.31
2018-08-19T08:20:48.462Z,95682.61
2018-08-19T08:23:22.001Z,95683.66
2018-08-19T08:25:50.863Z,95685.05
2018-08-19T08:28:19.931Z,95682.27
2018-08-19T08:30:48.759Z,95683.84
2018-08-19T08:33:17.455Z,95690.84
2018-08-19T08:35:51.192Z,95680.31
2018-08-19T08:38:19.974Z,95677.70
2018-08-19T08:40:48.647Z,95679.81
2018-08-19T08:43:17.291Z,95676.98
2018-08-19T08:45:45.986Z,95677.45
2018-08-19T08:48:15.615Z,95674.94
2018-08-19T08:50:45.173Z,95674.05
2018-08-19T08:53:13.915Z,95672.73
2018-08-19T08:55:42.639Z,95675.48
2018-08-19T08:58:11.318Z,95674.40
2018-08-19T09:00:40.047Z,95668.66
2018-08-19T09:03:08.779Z,95673.89
2018-08-19T09:05:37.507Z,95672.42
2018-08-19T09:08:06.405Z,95661.80
2018-08-19T09:10:35.113Z,95669.28
2018-08-19T09:13:03.976Z,95662.59
2018-08-19T09:15:32.733Z,95666.73
2018-08-19T09:18:01.433Z,95666.13
2018-08-19T09:20:30.158Z,95666.05
2018-08-19T09:22:59.056Z,95662.56
2018-08-19T09:25:27.759Z,95662.20
2018-08-19T09:27:56.507Z,95660.20
2018-08-19T09:30:35.270Z,95653.88
2018-08-19T09:33:06.021Z,95651.19
2018-08-19T09:35:35.886Z,95665.34
2018-08-19T09:38:11.931Z,95652.81
2018-08-19T09:40:41.171Z,95655.28
2018-08-19T09:43:10.200Z,95650.47
2018-08-19T09:45:39.150Z,95654.72
2018-08-19T09:48:08.371Z,95643.70
2018-08-19T09:50:37.835Z,95645.83
2018-08-19T09:53:06.550Z,95641.53
2018-08-19T09:55:43.555Z,95637.66
2018-08-19T09:58:13.163Z,95631.09
2018-08-19T10:00:47.178Z,95637.31
2018-08-19T10:03:15.827Z,95640.05
2018-08-19T10:05:44.547Z,95628.92
2018-08-19T10:08:13.409Z,95628.06
2018-08-19T10:10:42.256Z,95628.38
2018-08-19T10:13:10.981Z,95624.74
2018-08-19T10:15:39.647Z,95619.48
2018-08-19T10:18:09.812Z,95622.00
2018-08-19T10:20:38.474Z,95613.88
2018-08-19T10:23:07.196Z,95614.10
2018-08-19T10:25:35.904Z,95615.94
2018-08-19T10:28:07.410Z,95611.06
2018-08-19T10:30:39.106Z,95605.50
2018-08-19T10:33:09.754Z,95605.07
2018-08-19T10:35:38.444Z,95606.20
2018-08-19T10:38:07.171Z,95608.23
2018-08-19T10:40:35.904Z,95615.33
2018-08-19T10:43:07.095Z,95607.58
2018-08-19T10:45:41.710Z,95599.63
2018-08-19T10:48:11.754Z,95604.23
2018-08-19T10:50:40.478Z,95595.19
2018-08-19T10:53:14.935Z,95593.31
2018-08-19T10:55:43.968Z,95589.33
2018-08-19T10:58:12.694Z,95580.79
2018-08-19T11:00:42.050Z,95574.50
2018-08-19T11:03:25.051Z,95582.01
2018-08-19T11:05:55.174Z,95579.63
2018-08-19T11:08:23.958Z,95580.30
2018-08-19T11:10:52.654Z,95582.69
2018-08-19T11:13:24.909Z,95580.00
2018-08-19T11:15:55.723Z,95575.48
2018-08-19T11:18:38.010Z,95570.30
2018-08-19T11:21:24.896Z,95567.30
2018-08-19T11:23:53.679Z,95555.39
2018-08-19T11:26:22.433Z,95552.36
2018-08-19T11:28:53.218Z,95556.59
2018-08-19T11:31:27.442Z,95440.00
2018-08-19T11:33:57.738Z,95548.61
2018-08-19T11:36:32.671Z,95552.13
2018-08-19T11:39:01.400Z,95546.86
2018-08-19T11:41:32.388Z,95491.84
2018-08-19T11:44:05.219Z,95548.66
2018-08-19T11:46:34.014Z,95544.44
2018-08-19T11:49:07.839Z,95548.42
2018-08-19T11:51:43.188Z,95541.05
2018-08-19T11:54:13.457Z,95539.34
2018-08-19T11:56:42.198Z,95533.87
2018-08-19T11:59:10.839Z,95533.13
2018-08-19T12:01:39.552Z,95526.66
2018-08-19T12:04:11.234Z,95521.80
2018-08-19T12:06:40.005Z,95518.94
2018-08-19T12:09:10.032Z,95514.48
2018-08-19T12:11:40.828Z,95511.51
2018-08-19T12:14:11.498Z,95517.30
2018-08-19T12:16:47.253Z,95508.05
2018-08-19T12:19:23.814Z,95498.98
2018-08-19T12:21:53.814Z,95495.25
2018-08-19T12:24:26.847Z,95497.77
2018-08-19T12:26:57.147Z,95501.48
2018-08-19T12:29:27.518Z,95503.66
2018-08-19T12:32:02.874Z,95511.21
2018-08-19T12:34:31.978Z,95500.70
2018-08-19T12:37:00.644Z,95496.69
2018-08-19T12:39:29.310Z,95494.89
2018-08-19T12:41:57.966Z,95498.09
2018-08-19T12:44:26.645Z,95516.08
2018-08-19T12:47:07.771Z,95510.05
2018-08-19T12:49:41.878Z,95502.59
2018-08-19T12:52:12.172Z,95513.41
2018-08-19T12:54:40.894Z,95509.06
2018-08-19T12:57:09.597Z,95519.59
2018-08-19T12:59:38.338Z,95514.65
2018-08-19T13:02:07.077Z,95528.83
2018-08-19T13:04:50.721Z,95529.64
2018-08-19T13:07:19.453Z,95542.73
2018-08-19T13:09:50.556Z,95536.28
2018-08-19T13:12:19.310Z,95536.68
2018-08-19T13:14:48.484Z,95538.03
2018-08-19T13:17:37.933Z,95540.58
2018-08-19T13:20:08.874Z,95531.67
2018-08-19T13:22:48.863Z,95533.15
2018-08-19T13:25:18.746Z,95535.42
2018-08-19T13:27:47.563Z,95536.68
2018-08-19T13:30:16.747Z,95533.14
2018-08-19T13:32:45.441Z,95532.30
2018-08-19T13:35:14.213Z,95526.94
2018-08-19T13:37:43.203Z,95521.34
2018-08-19T13:40:12.790Z,95527.75
2018-08-19T13:42:41.723Z,95518.05
2018-08-19T13:45:13.447Z,95505.56
2018-08-19T13:47:43.526Z,95512.38
2018-08-19T13:50:12.667Z,95505.05
2018-08-19T13:52:42.373Z,95514.51
2018-08-19T13:55:12.386Z,95514.55
2018-08-19T13:57:41.166Z,95506.80
2018-08-19T14:00:13.567Z,95509.59
2018-08-19T14:02:42.403Z,95506.75
2018-08-19T14:05:11.231Z,95512.14
2018-08-19T14:07:39.957Z,95502.09
2018-08-19T14:10:10.153Z,95497.88
2018-08-19T14:12:38.900Z,95493.08
2018-08-19T14:15:07.736Z,95489.30
2018-08-19T14:17:36.842Z,95491.36
2018-08-19T14:20:07.795Z,95491.77
2018-08-19T14:22:36.446Z,95483.23
2018-08-19T14:25:06.262Z,95486.55
2018-08-19T14:27:34.956Z,95489.87
2018-08-19T14:30:05.571Z,95480.34
2018-08-19T14:32:35.556Z,95481.53
2018-08-19T14:35:04.972Z,95479.70
2018-08-19T14:37:33.822Z,95472.97
2018-08-19T14:40:02.924Z,95468.39
2018-08-19T14:42:31.678Z,95476.78
2018-08-19T14:45:00.650Z,95460.34
2018-08-19T14:47:29.687Z,95460.34
2018-08-19T14:49:59.374Z,95462.73
2018-08-19T14:52:28.642Z,95465.16
2018-08-19T14:54:57.347Z,95467.74
2018-08-19T14:57:26.238Z,95457.66
2018-08-19T14:59:55.796Z,95474.97
2018-08-19T15:02:24.499Z,95460.75
2018-08-19T15:04:53.184Z,95461.09
2018-08-19T15:07:21.898Z,95451.56
2018-08-19T15:09:52.987Z,95444.86
2018-08-19T15:12:24.575Z,95446.16
2018-08-19T15:14:53.998Z,95444.05
2018-08-19T15:17:22.657Z,95444.65
2018-08-19T15:19:52.628Z,95445.62
2018-08-19T15:22:21.574Z,95447.85
2018-08-19T15:24:50.786Z,95445.92
2018-08-19T15:27:19.665Z,95444.33
2018-08-19T15:29:50.139Z,95445.05
2018-08-19T15:32:20.582Z,95445.23
2018-08-19T15:34:49.051Z,95448.22
2018-08-19T15:37:17.775Z,95446.62
2018-08-19T15:39:46.472Z,95442.91
2018-08-19T15:42:16.412Z,95443.78
2018-08-19T15:44:45.274Z,95442.93
2018-08-19T15:47:14.195Z,95446.69
2018-08-19T15:49:42.888Z,95446.89
2018-08-19T15:52:11.532Z,95450.02
2018-08-19T15:54:42.692Z,95439.38
2018-08-19T15:57:11.368Z,95445.97
2018-08-19T15:59:40.017Z,95440.69
2018-08-19T16:02:08.788Z,95438.86
2018-08-19T16:04:37.467Z,95440.24
2018-08-19T16:07:06.220Z,95440.88
2018-08-19T16:09:34.918Z,95444.32
2018-08-19T16:12:03.721Z,95445.52
2018-08-19T16:14:33.133Z,95446.57
2018-08-19T16:17:03.083Z,95449.88
2018-08-19T16:19:31.765Z,95452.31
2018-08-19T16:22:00.831Z,95458.91
2018-08-19T16:24:29.651Z,95455.95
2018-08-19T16:26:58.507Z,95459.09
2018-08-19T16:29:27.236Z,95458.17
2018-08-19T16:31:55.965Z,95457.02
2018-08-19T16:34:24.747Z,95457.98
2018-08-19T16:36:53.412Z,95461.46
2018-08-19T16:39:22.195Z,95462.92
2018-08-19T16:41:50.827Z,95463.63
2018-08-19T16:44:19.552Z,95474.63
2018-08-19T16:46:48.281Z,95468.66
2018-08-19T16:49:16.991Z,95475.13
2018-08-19T16:51:45.720Z,95469.52
2018-08-19T16:54:14.476Z,95475.30
2018-08-19T16:56:43.454Z,95479.22
2018-08-19T16:59:12.243Z,95479.13
2018-08-19T17:01:41.024Z,95477.62
2018-08-19T17:04:09.697Z,95486.00
2018-08-19T17:06:38.830Z,95488.23
2018-08-19T17:09:08.639Z,95487.02
2018-08-19T17:11:37.374Z,95488.31
2018-08-19T17:14:06.174Z,95484.66
2018-08-19T17:16:34.870Z,95482.41
2018-08-19T17:19:03.618Z,95482.91
2018-08-19T17:21:32.307Z,95486.20
2018-08-19T17:24:00.978Z,95485.73
2018-08-19T17:26:29.771Z,95479.59
2018-08-19T17:29:04.447Z,95488.20
2018-08-19T17:31:33.264Z,95489.17
2018-08-19T17:34:05.114Z,95495.38
2018-08-19T17:36:36.874Z,95489.05
2018-08-19T17:39:09.034Z,95489.59
2018-08-19T17:41:37.617Z,95489.09
2018-08-19T17:44:06.354Z,95489.73
2018-08-19T17:46:34.999Z,95480.20
2018-08-19T17:49:03.844Z,95494.72
2018-08-19T17:51:34.058Z,95497.14
2018-08-19T17:54:02.834Z,95502.28
2018-08-19T17:56:31.507Z,95502.42
2018-08-19T17:59:00.306Z,95502.03
2018-08-19T18:01:29.001Z,95510.05
2018-08-19T18:03:57.677Z,95506.59
2018-08-19T18:06:26.297Z,95507.55
2018-08-19T18:08:54.963Z,95517.22
2018-08-19T18:11:23.639Z,95512.72
2018-08-19T18:13:52.296Z,95511.27
2018-08-19T18:16:21.047Z,95511.70
2018-08-19T18:18:49.783Z,95510.20
2018-08-19T18:21:18.488Z,95508.63
2018-08-19T18:23:48.790Z,95510.75
2018-08-19T18:26:17.536Z,95513.04
2018-08-19T18:28:47.864Z,95517.23
2018-08-19T18:31:21.634Z,95514.70
2018-08-19T18:33:55.494Z,95516.52
2018-08-19T18:36:25.225Z,95517.27
2018-08-19T18:38:53.931Z,95510.55
2018-08-19T18:41:27.174Z,95513.06
2018-08-19T18:43:57.102Z,95514.33
2018-08-19T18:46:25.925Z,95516.06
2018-08-19T18:49:13.810Z,95521.94
2018-08-19T18:51:45.701Z,95523.19
2018-08-19T18:54:21.531Z,95520.20
2018-08-19T18:56:50.297Z,95523.39
2018-08-19T18:59:18.985Z,95529.91
2018-08-19T19:01:47.634Z,95527.81
2018-08-19T19:04:16.270Z,95528.17
2018-08-19T19:06:44.920Z,95536.58
2018-08-19T19:09:13.539Z,95532.11
2018-08-19T19:11:42.210Z,95536.61
2018-08-19T19:14:19.975Z,95536.05
2018-08-19T19:16:49.430Z,95526.95
2018-08-19T19:19:18.127Z,95530.17
2018-08-19T19:21:54.282Z,95531.20
2018-08-19T19:24:27.070Z,95530.17
2018-08-19T19:26:55.760Z,95522.45
2018-08-19T19:29:26.941Z,95523.77
2018-08-19T19:31:56.742Z,95518.58
2018-08-19T19:34:25.477Z,95522.55
2018-08-19T19:36:54.091Z,95521.45
2018-08-19T19:39:22.736Z,95517.13
2018-08-19T19:41:55.713Z,95524.30
2018-08-19T19:44:28.516Z,95528.72
2018-08-19T19:46:57.239Z,95524.50
2018-08-19T19:49:25.996Z,95525.94
2018-08-19T19:51:59.880Z,95519.95
2018-08-19T19:54:30.134Z,95524.47
2018-08-19T19:56:59.218Z,95518.81
2018-08-19T19:59:34.517Z,95517.27
2018-08-19T20:02:03.266Z,95508.11
2018-08-19T20:04:35.389Z,95517.95
2018-08-19T20:07:04.231Z,95519.94
2018-08-19T20:09:35.744Z,95518.64
2018-08-19T20:12:04.535Z,95518.91
2018-08-19T20:14:37.271Z,95520.49
2018-08-19T20:17:06.003Z,95527.22
2018-08-19T20:19:34.730Z,95524.64
2018-08-19T20:22:03.661Z,95518.57
2018-08-19T20:24:32.394Z,95524.45
2018-08-19T20:27:01.054Z,95525.28
2018-08-19T20:29:29.690Z,95515.51
2018-08-19T20:31:58.340Z,95519.86
2018-08-19T20:34:26.997Z,95526.20
2018-08-19T20:36:55.691Z,95521.87
2018-08-19T20:39:24.357Z,95529.53
2018-08-19T20:41:53.097Z,95531.12
2018-08-19T20:44:21.776Z,95537.79
2018-08-19T20:46:54.594Z,95540.34
2018-08-19T20:49:23.361Z,95537.99
2018-08-19T20:51:52.290Z,95541.50
2018-08-19T20:54:20.988Z,95547.38
2018-08-19T20:56:49.636Z,95547.95
2018-08-19T20:59:48.728Z,95552.40
2018-08-19T21:02:17.399Z,95544.55
2018-08-19T21:04:46.062Z,95541.80
2018-08-19T21:07:14.695Z,95534.91
2018-08-19T21:09:43.356Z,95540.22
2018-08-19T21:12:11.974Z,95543.39
2018-08-19T21:14:40.667Z,95541.08
2018-08-19T21:17:09.403Z,95540.01
2018-08-19T21:19:39.074Z,95535.11
2018-08-19T21:22:07.761Z,95535.89
2018-08-19T21:24:42.699Z,95539.64
2018-08-19T21:27:11.355Z,95537.26
2018-08-19T21:29:40.034Z,95539.06
2018-08-19T21:32:08.703Z,95542.92
2018-08-19T21:34:37.362Z,95543.38
2018-08-19T21:37:06.008Z,95541.27
2018-08-19T21:39:34.721Z,95541.87
2018-08-19T21:42:03.444Z,95545.59
2018-08-19T21:44:32.069Z,95541.84
2018-08-19T21:47:00.759Z,95543.63
2018-08-19T21:49:29.439Z,95543.67
2018-08-19T21:51:58.280Z,95545.34
2018-08-19T21:54:26.950Z,95543.81
2018-08-19T21:56:55.616Z,95542.26
2018-08-19T21:59:24.958Z,95547.77
2018-08-19T22:01:58.775Z,95541.30
2018-08-19T22:04:27.842Z,95535.45
2018-08-19T22:06:56.589Z,95540.97
2018-08-19T22:09:36.023Z,95538.43
2018-08-19T22:12:05.884Z,95539.02
2018-08-19T22:14:34.700Z,95543.14
2018-08-19T22:17:09.200Z,95539.83
2018-08-19T22:19:38.231Z,95532.16
2018-08-19T22:22:07.243Z,95532.34
2018-08-19T22:24:35.996Z,95528.81
2018-08-19T22:27:09.115Z,95511.95
2018-08-19T22:29:44.916Z,95515.31
2018-08-19T22:32:13.607Z,95505.10
2018-08-19T22:34:42.289Z,95503.16
2018-08-19T22:37:10.976Z,95509.21
2018-08-19T22:39:39.812Z,95512.34
2018-08-19T22:42:09.103Z,95520.14
2018-08-19T22:44:37.778Z,95515.45
2018-08-19T22:47:21.722Z,95514.27
2018-08-19T22:50:11.787Z,95511.34
2018-08-19T22:52:40.902Z,95514.86
2018-08-19T22:55:12.064Z,95512.70
2018-08-19T22:57:40.696Z,95510.36
2018-08-19T23:00:09.455Z,95506.82
2018-08-19T23:02:38.188Z,95509.17
2018-08-19T23:05:06.912Z,95512.28
2018-08-19T23:07:35.529Z,95514.44
2018-08-19T23:10:04.292Z,95515.23
2018-08-19T23:12:32.896Z,95506.96
2018-08-19T23:15:12.458Z,95506.56
2018-08-19T23:17:41.139Z,95504.45
2018-08-19T23:20:09.803Z,95502.70
2018-08-19T23:22:38.438Z,95500.55
2018-08-19T23:25:07.216Z,95503.03
2018-08-19T23:27:35.911Z,95506.03
2018-08-19T23:30:06.187Z,95503.91
2018-08-19T23:32:34.972Z,95498.83
2018-08-19T23:35:03.645Z,95495.30
2018-08-19T23:37:32.378Z,95498.45
2018-08-19T23:40:01.050Z,95499.82
2018-08-19T23:42:29.691Z,95494.13
2018-08-19T23:44:58.294Z,95484.94
2018-08-19T23:47:26.940Z,95488.66
2018-08-19T23:49:55.633Z,95480.63
2018-08-19T23:52:24.259Z,95483.75
2018-08-19T23:54:52.923Z,95484.91
2018-08-19T23:57:21.554Z,95487.84
2018-08-19T23:59:50.223Z,95485.71
